Flight Track Log - Related Links

Times and Time Zones

All times are in EDT time to prevent confusion due to time zone crossing. See the AAR8739 flight status page for this flight to view local times or setup timezone preferences in your user account.

Time Position Orientation Groundspeed Altitude Reporting Facility
EDT Latitude Longitude Course Direction KTS MPH feet Rate Location/Type
Sat 10:38:03 PM 37.5310 126.8280 134° Southeast 164 189 2,600  Level FlightAware ADS-B (SBBH / PLU)
Sat 10:38:17 PM 37.5233 126.8378 135° Southeast 175 201 3,100 2,129 Climbing FlightAware ADS-B (SBBH / PLU)
Sat 10:38:34 PM 37.5123 126.8513 135° Southeast 197 227 3,700 1,875 Climbing FlightAware ADS-B (SBBH / PLU)
Sat 10:38:49 PM 37.5020 126.8631 143° Southeast 222 255 4,100 1,800 Climbing FlightAware ADS-B (SBBH / PLU)
Sat 10:38:54 PM 37.4969 126.8668 153° Southeast 227 261 4,300 2,400 Climbing FlightAware ADS-B (SBBH / PLU)
Sat 10:38:59 PM 37.4921 126.8693 159° South 232 267 4,500 2,400 Climbing FlightAware ADS-B (SBBH / PLU)
Sat 10:39:14 PM 37.4767 126.8757 162° South 253 291 5,100 2,000 Climbing FlightAware ADS-B (SBBH / PLU)
Sat 10:39:29 PM 37.4577 126.8831 163° South 276 318 5,500 1,440 Climbing FlightAware ADS-B (SBBH / PLU)
Sat 10:39:39 PM 37.4456 126.8859 173° South 278 320 5,700 1,286 Climbing FlightAware ADS-B (SBBH / PLU)
Sat 10:39:43 PM 37.4399 126.8860 181° South 278 320 5,800 1,500 Climbing FlightAware ADS-B (SBBH / PLU)
Sat 10:39:59 PM 37.4196 126.8846 184° South 280 322 6,200 1,355 Climbing FlightAware ADS-B (SBBH / PLU)
Sat 10:40:14 PM 37.4008 126.8831 185° South 282 325 6,500 686 Climbing FlightAware ADS-B (SBBH / PLU)
Sat 10:40:34 PM 37.3756 126.8809 185° South 280 322 6,600 882 Climbing FlightAware ADS-B (SBBH / PLU)
Sat 10:40:48 PM 37.3561 126.8792 185° South 283 326 7,000 2,571 Climbing FlightAware ADS-B (SBBH / PLU)
Sat 10:41:02 PM 37.3409 126.8779 185° South 282 325 7,800 3,871 Climbing FlightAware ADS-B (SBBH / PLU)
Sat 10:41:19 PM 37.3161 126.8757 185° South 282 325 9,000 3,563 Climbing FlightAware ADS-B (SBBH / PLU)
Sat 10:41:34 PM 37.2980 126.8742 185° South 281 323 9,700 2,400 Climbing FlightAware ADS-B (SBBH / PLU)
Sat 10:42:09 PM 37.2475 126.8697 185° South 327 376 11,000 1,846 Climbing FlightAware ADS-B (SBBH / PLU)
Sat 10:42:39 PM 37.1984 126.8655 184° South 363 418 11,700 2,316 Climbing FlightAware ADS-B (SBBH / PLU)
Sat 10:43:06 PM 37.1558 126.8619 185° South 377 434 13,200 3,333 Climbing FlightAware ADS-B (SBBH / PLU)
Sat 10:45:00 PM 37.0087 126.9111 165° South  Level Estimated
Sat 10:46:00 PM 36.9312 126.9370 165° South  Level Estimated
Sat 10:47:00 PM 36.8538 126.9628 165° South  Level Estimated
Sat 10:48:00 PM 36.7763 126.9885 165° South  Level Estimated
Sat 10:49:00 PM 36.6989 127.0142 165° South  Level Estimated
Sat 10:50:00 PM 36.6214 127.0398 165° South  Level Estimated
Sat 10:51:00 PM 36.5440 127.0654 165° South  Level Estimated
Sat 10:52:00 PM 36.4665 127.0909 165° South  Level Estimated
Sat 10:53:00 PM 36.3890 127.1164 165° South  Level Estimated
Sat 10:54:00 PM 36.3116 127.1419 165° South  Level Estimated
Sat 10:55:00 PM 36.2341 127.1672 165° South  Level Estimated
Sat 10:56:00 PM 36.1566 127.1926 165° South  Level Estimated
Sat 10:57:00 PM 36.0791 127.2178 165° South  Level Estimated
Sat 10:58:00 PM 36.0016 127.2431 165° South  Level Estimated
Sat 10:59:00 PM 35.9241 127.2683 165° South  Level Estimated
Sat 11:00:00 PM 35.8466 127.2934 165° South  Level Estimated
Sat 11:01:00 PM 35.7691 127.3185 165° South  Level Estimated
Sat 11:02:00 PM 35.6916 127.3435 165° South  Level Estimated
Sat 11:03:00 PM 35.6141 127.3685 165° South  Level Estimated
Sat 11:04:00 PM 35.5365 127.3934 165° South  Level Estimated
Sat 11:05:00 PM 35.4590 127.4183 165° South  Level Estimated
Sat 11:06:00 PM 35.3815 127.4432 165° South  Level Estimated
Sat 11:07:00 PM 35.3039 127.4679 165° South  Level Estimated
Sat 11:08:00 PM 35.2264 127.4927 165° South  Level Estimated
Sat 11:09:00 PM 35.1488 127.5174 165° South  Level Estimated
Sat 11:10:00 PM 35.0713 127.5421 165° South  Level Estimated
Sat 11:11:00 PM 34.9937 127.5667 165° South  Level Estimated
Sat 11:12:00 PM 34.9161 127.5912 165° South  Level Estimated
Sat 11:13:00 PM 34.8398 127.6153 165° South  Level Estimated
Sat 11:14:00 PM 34.8398 127.6153 North  Level Estimated
Sat 11:15:00 PM 34.8398 127.6153 North  Level Estimated
Sat 11:16:00 PM 34.8398 127.6153 North  Level Estimated
Sat 11:17:00 PM 34.8398 127.6153 North  Level Estimated
Sat 11:18:00 PM 34.8398 127.6153 North  Level Estimated
Sat 11:19:00 PM 34.8398 127.6153 North  Level Estimated
Sat 11:20:00 PM 34.8398 127.6153 North  Level Estimated
Sat 11:21:00 PM 34.8398 127.6153 North  Level Estimated
Sat 11:22:00 PM 34.8398 127.6153 North  Level Estimated
Sat 11:23:00 PM 34.8398 127.6153 North  Level Estimated
Sat 11:24:00 PM 34.8398 127.6153 North  Level Estimated
Sat 11:25:00 PM 34.8398 127.6153 North  Level Estimated
Sat 11:26:00 PM 34.8398 127.6153 North  Level Estimated
Sat 11:27:00 PM 34.8398 127.6153 North  Level Estimated

Login

Don't have an account? Register now (free) for customized features, flight alerts, and more!